Time;durP1;ratioP1;P1;durP2;ratioP2;P2;SDS_P1;SDS_P2;PMS_P1;PMS_P2;Temp;Humidity;BMP_temperature;BMP_pressure;BME280_temperature;BME280_humidity;BME280_pressure;Samples;Min_cycle;Max_cycle;Signal;HPM_P1;HPM_P2
2023/12/08 00:00:09;;;;;;;12.50;9.50;;;3.00;99.90;;;;;;4854946;29;20192;-75
2023/12/08 00:02:36;;;;;;;14.33;10.20;;;3.00;99.90;;;;;;4864018;29;20281;-77
2023/12/08 00:05:03;;;;;;;13.87;9.90;;;2.90;99.90;;;;;;4846436;29;20807;-75
2023/12/08 00:07:28;;;;;;;14.43;10.57;;;2.90;99.90;;;;;;4865663;29;20955;-75
2023/12/08 00:09:54;;;;;;;18.90;11.00;;;2.90;99.90;;;;;;4868839;29;20413;-75
2023/12/08 00:12:20;;;;;;;15.77;9.87;;;2.90;99.90;;;;;;4866257;29;20489;-76
2023/12/08 00:14:46;;;;;;;11.93;9.60;;;3.00;99.90;;;;;;4869044;29;20204;-75
2023/12/08 00:17:11;;;;;;;14.90;9.93;;;3.00;99.90;;;;;;4866464;29;20197;-75
2023/12/08 00:19:37;;;;;;;12.40;9.70;;;3.00;99.90;;;;;;4852705;29;20193;-74
2023/12/08 00:22:04;;;;;;;13.97;9.77;;;2.90;99.90;;;;;;4860890;29;20485;-75
2023/12/08 00:24:30;;;;;;;16.60;10.80;;;3.00;99.90;;;;;;4868165;29;20197;-74
2023/12/08 00:26:55;;;;;;;18.10;10.63;;;2.90;99.90;;;;;;4862248;29;20457;-76
2023/12/08 00:29:21;;;;;;;15.90;10.70;;;2.90;99.90;;;;;;4865259;29;20189;-75
2023/12/08 00:31:47;;;;;;;15.07;10.33;;;2.90;99.90;;;;;;4863394;29;20238;-75
2023/12/08 00:34:13;;;;;;;12.17;8.87;;;2.90;99.90;;;;;;4864178;29;20480;-76
2023/12/08 00:36:41;;;;;;;18.23;11.40;;;2.90;99.90;;;;;;4869283;29;20461;-75
2023/12/08 00:39:08;;;;;;;14.47;10.10;;;3.00;99.90;;;;;;4856429;29;20410;-75
2023/12/08 00:41:34;;;;;;;14.00;11.00;;;3.00;99.90;;;;;;4857269;29;20438;-77
2023/12/08 00:44:00;;;;;;;14.63;9.97;;;3.10;99.90;;;;;;4849620;29;20196;-75
2023/12/08 00:46:25;;;;;;;13.13;8.60;;;3.20;99.90;;;;;;4863267;29;20212;-75
2023/12/08 00:48:51;;;;;;;13.93;9.10;;;3.20;99.90;;;;;;4859276;29;20432;-75
2023/12/08 00:51:17;;;;;;;10.80;7.87;;;3.10;99.90;;;;;;4860305;29;20203;-73
2023/12/08 00:53:42;;;;;;;11.80;9.23;;;3.10;99.90;;;;;;4838276;29;20249;-74
2023/12/08 00:56:08;;;;;;;13.00;8.80;;;3.10;99.90;;;;;;4860441;29;20213;-74
2023/12/08 00:58:34;;;;;;;16.33;9.60;;;3.10;99.90;;;;;;4859508;29;20196;-75
2023/12/08 01:01:00;;;;;;;14.93;10.03;;;3.10;99.90;;;;;;4866717;29;20466;-75
2023/12/08 01:03:25;;;;;;;18.00;8.97;;;3.20;99.90;;;;;;4865816;29;20695;-76
2023/12/08 01:05:52;;;;;;;11.30;8.80;;;3.30;99.90;;;;;;4869262;29;20609;-76
2023/12/08 01:08:17;;;;;;;12.67;9.53;;;3.30;99.90;;;;;;4861829;29;20248;-75
2023/12/08 01:10:43;;;;;;;13.93;9.50;;;3.30;99.90;;;;;;4857918;29;20490;-75
2023/12/08 01:13:09;;;;;;;16.07;9.50;;;3.40;99.90;;;;;;4858742;29;20178;-74
2023/12/08 01:15:34;;;;;;;11.47;8.20;;;3.30;99.90;;;;;;4857650;29;20286;-75
2023/12/08 01:18:00;;;;;;;12.43;9.00;;;3.30;99.90;;;;;;4857062;29;20601;-75
2023/12/08 01:20:26;;;;;;;12.40;9.47;;;3.30;99.90;;;;;;4855099;29;20193;-74
2023/12/08 01:22:51;;;;;;;11.83;9.50;;;3.20;99.90;;;;;;4864596;29;20186;-74
2023/12/08 01:25:17;;;;;;;19.10;9.10;;;3.20;99.90;;;;;;4862643;29;20224;-73
2023/12/08 01:27:43;;;;;;;13.87;10.20;;;3.20;99.90;;;;;;4864319;29;20226;-75
2023/12/08 01:30:09;;;;;;;13.50;10.00;;;3.20;99.90;;;;;;4859364;29;20252;-73
2023/12/08 01:32:35;;;;;;;12.00;9.50;;;3.20;99.90;;;;;;4855750;29;20613;-74
2023/12/08 01:35:01;;;;;;;12.30;8.40;;;3.20;99.90;;;;;;4864795;29;20476;-73
2023/12/08 01:37:26;;;;;;;11.60;8.33;;;3.30;99.90;;;;;;4856363;29;20192;-73
2023/12/08 01:39:52;;;;;;;13.80;8.90;;;3.30;99.90;;;;;;4855920;29;20201;-73
2023/12/08 01:42:17;;;;;;;13.13;9.23;;;3.40;99.90;;;;;;4864785;29;20188;-75
2023/12/08 01:44:43;;;;;;;12.30;8.90;;;3.40;99.90;;;;;;4852170;29;20512;-73
2023/12/08 01:47:10;;;;;;;12.47;8.73;;;3.40;99.90;;;;;;4856960;29;20280;-75
2023/12/08 01:49:37;;;;;;;12.27;8.27;;;3.40;99.90;;;;;;4856280;29;20232;-74
2023/12/08 01:52:03;;;;;;;14.40;9.77;;;3.30;99.90;;;;;;4856870;29;20418;-75
2023/12/08 01:54:30;;;;;;;14.97;8.80;;;3.30;99.90;;;;;;4858134;29;20508;-73
2023/12/08 01:56:56;;;;;;;14.50;9.40;;;3.30;99.90;;;;;;4852247;29;20438;-74
2023/12/08 01:59:22;;;;;;;14.13;10.13;;;3.30;99.90;;;;;;4850512;29;20434;-74
2023/12/08 02:01:48;;;;;;;12.67;8.97;;;3.30;99.90;;;;;;4850650;29;20438;-73
2023/12/08 02:04:14;;;;;;;12.67;10.27;;;3.30;99.90;;;;;;4850203;29;20452;-73
2023/12/08 02:06:40;;;;;;;14.90;9.47;;;3.20;99.90;;;;;;4846741;29;20221;-74
2023/12/08 02:09:07;;;;;;;14.80;10.63;;;3.10;99.90;;;;;;4854636;29;20177;-73
2023/12/08 02:11:34;;;;;;;13.30;9.20;;;3.10;99.90;;;;;;4861990;29;20869;-73
2023/12/08 02:14:00;;;;;;;14.93;9.67;;;3.00;99.90;;;;;;4853905;29;20429;-74
2023/12/08 02:16:36;;;;;;;14.07;9.20;;;3.10;99.90;;;;;;4855515;29;20444;-74
2023/12/08 02:19:06;;;;;;;12.30;9.10;;;3.10;99.90;;;;;;4843829;29;20582;-75
2023/12/08 02:21:32;;;;;;;15.57;9.83;;;3.10;99.90;;;;;;4854385;29;20438;-75
2023/12/08 02:23:58;;;;;;;13.40;9.13;;;3.10;99.90;;;;;;4857849;29;20425;-73
2023/12/08 02:26:24;;;;;;;14.87;9.03;;;3.10;99.90;;;;;;4854972;29;20794;-73
2023/12/08 02:28:49;;;;;;;13.40;9.60;;;3.10;99.90;;;;;;4856358;29;20220;-74
2023/12/08 02:31:19;;;;;;;15.60;10.87;;;3.10;99.90;;;;;;4858275;29;20431;-75
2023/12/08 02:33:48;;;;;;;13.67;9.90;;;3.10;99.90;;;;;;4853789;29;20234;-74
2023/12/08 02:36:18;;;;;;;15.10;10.67;;;3.10;99.90;;;;;;4850196;29;20442;-73
2023/12/08 02:38:50;;;;;;;13.43;8.70;;;3.10;99.90;;;;;;4853102;29;20520;-73
2023/12/08 02:41:16;;;;;;;12.20;8.50;;;3.10;99.90;;;;;;4849779;29;20474;-73
2023/12/08 02:43:42;;;;;;;13.27;8.60;;;3.20;99.90;;;;;;4849365;29;20418;-74
2023/12/08 02:46:07;;;;;;;14.30;10.00;;;3.20;99.90;;;;;;4851068;29;20224;-73
2023/12/08 02:48:33;;;;;;;15.23;8.50;;;3.20;99.90;;;;;;4860447;29;20363;-74
2023/12/08 02:50:58;;;;;;;14.47;10.60;;;3.20;99.90;;;;;;4855420;29;20268;-75
2023/12/08 02:53:24;;;;;;;13.90;10.20;;;3.20;99.90;;;;;;4858000;29;20192;-73
2023/12/08 02:55:50;;;;;;;14.73;9.60;;;3.20;99.90;;;;;;4852636;29;20220;-75
2023/12/08 02:58:16;;;;;;;17.53;11.07;;;3.20;99.90;;;;;;4858469;29;20207;-75
2023/12/08 03:00:41;;;;;;;14.80;9.60;;;3.10;99.90;;;;;;4857554;29;20460;-74
2023/12/08 03:03:07;;;;;;;16.03;9.50;;;3.00;99.90;;;;;;4852531;29;20279;-74
2023/12/08 03:05:32;;;;;;;16.70;9.53;;;2.90;99.90;;;;;;4850685;29;20213;-75
2023/12/08 03:07:58;;;;;;;14.90;10.70;;;2.80;99.90;;;;;;4857369;29;20558;-74
2023/12/08 03:10:24;;;;;;;16.80;9.87;;;2.70;99.90;;;;;;4857730;29;20184;-74
2023/12/08 03:12:49;;;;;;;16.07;10.93;;;2.60;99.90;;;;;;4851554;29;20200;-74
2023/12/08 03:15:15;;;;;;;15.23;10.80;;;2.60;99.90;;;;;;4849422;29;20629;-74
2023/12/08 03:17:40;;;;;;;16.13;11.30;;;2.60;99.90;;;;;;4848474;29;20528;-73
2023/12/08 03:20:06;;;;;;;14.10;10.40;;;2.50;99.90;;;;;;4849483;29;20610;-74
2023/12/08 03:22:32;;;;;;;15.07;11.17;;;2.50;99.90;;;;;;4854196;29;20195;-73
2023/12/08 03:24:58;;;;;;;18.20;12.07;;;2.50;99.90;;;;;;4857941;29;20687;-74
2023/12/08 03:27:23;;;;;;;17.40;11.90;;;2.40;99.90;;;;;;4853878;29;20234;-74
2023/12/08 03:29:49;;;;;;;13.70;10.10;;;2.40;99.90;;;;;;4847826;29;20193;-74
2023/12/08 03:32:14;;;;;;;22.57;12.17;;;2.30;99.90;;;;;;4850435;29;20193;-73
2023/12/08 03:34:40;;;;;;;16.97;11.03;;;2.30;99.90;;;;;;4848275;29;20225;-74
2023/12/08 03:37:06;;;;;;;15.00;10.53;;;2.40;99.90;;;;;;4854170;29;20265;-73
2023/12/08 03:39:31;;;;;;;13.90;9.47;;;2.30;99.90;;;;;;4853327;29;20205;-72
2023/12/08 03:41:57;;;;;;;16.30;11.10;;;2.30;99.90;;;;;;4853925;29;20284;-73
2023/12/08 03:44:23;;;;;;;17.20;10.43;;;2.20;99.90;;;;;;4856706;29;20315;-73
2023/12/08 03:46:48;;;;;;;17.70;10.47;;;2.20;99.90;;;;;;4860254;29;20286;-73
2023/12/08 03:49:14;;;;;;;20.00;11.60;;;2.20;99.90;;;;;;4847539;29;20279;-75
2023/12/08 03:51:39;;;;;;;17.07;11.13;;;2.20;99.90;;;;;;4854857;29;20539;-75
2023/12/08 03:54:05;;;;;;;17.60;10.33;;;2.20;99.90;;;;;;4852564;29;20584;-73
2023/12/08 03:56:31;;;;;;;18.10;11.77;;;2.10;99.90;;;;;;4846905;29;20204;-74
2023/12/08 03:58:56;;;;;;;19.00;13.07;;;2.10;99.90;;;;;;4857863;29;20189;-73
2023/12/08 04:01:22;;;;;;;20.23;12.60;;;2.10;99.90;;;;;;4853157;29;20253;-73
2023/12/08 04:03:48;;;;;;;17.90;12.13;;;2.00;99.90;;;;;;4860928;29;20192;-74
2023/12/08 04:06:13;;;;;;;18.47;12.20;;;2.00;99.90;;;;;;4851968;29;20212;-73
2023/12/08 04:08:39;;;;;;;18.23;12.13;;;1.90;99.90;;;;;;4862489;29;20621;-74
2023/12/08 04:11:05;;;;;;;16.10;11.40;;;2.00;99.90;;;;;;4861973;29;20611;-74
2023/12/08 04:13:31;;;;;;;17.30;12.20;;;1.90;99.90;;;;;;4849710;29;20185;-74
2023/12/08 04:15:56;;;;;;;21.17;13.00;;;1.90;99.90;;;;;;4852110;29;20700;-73
2023/12/08 04:18:22;;;;;;;19.70;12.13;;;1.90;99.90;;;;;;4856603;29;20232;-72
2023/12/08 04:20:48;;;;;;;17.60;12.50;;;1.80;99.90;;;;;;4861060;29;20306;-73
2023/12/08 04:23:13;;;;;;;19.43;12.97;;;1.80;99.90;;;;;;4862006;29;20208;-72
2023/12/08 04:25:39;;;;;;;20.03;13.07;;;1.80;99.90;;;;;;4855274;29;20232;-73
2023/12/08 04:28:05;;;;;;;20.20;13.13;;;1.80;99.90;;;;;;4858119;29;20300;-74
2023/12/08 04:30:30;;;;;;;19.13;12.50;;;1.80;99.90;;;;;;4862930;29;20316;-74
2023/12/08 04:32:56;;;;;;;20.43;10.10;;;1.70;99.90;;;;;;4852130;29;20592;-72
2023/12/08 04:35:23;;;;;;;15.97;10.63;;;1.70;99.90;;;;;;4853964;29;20223;-74
2023/12/08 04:37:50;;;;;;;15.77;9.70;;;1.70;99.90;;;;;;4862990;29;20937;-74
2023/12/08 04:40:16;;;;;;;14.17;9.50;;;1.70;99.90;;;;;;4860003;29;20434;-75
2023/12/08 04:42:42;;;;;;;14.47;9.70;;;1.70;99.90;;;;;;4851348;29;20738;-74
2023/12/08 04:45:09;;;;;;;13.53;9.07;;;1.70;99.90;;;;;;4851365;29;20539;-73
2023/12/08 04:47:35;;;;;;;13.43;8.83;;;1.70;99.90;;;;;;4850884;29;20224;-73
2023/12/08 04:50:02;;;;;;;13.10;8.13;;;1.80;99.90;;;;;;4852506;29;20413;-73
2023/12/08 04:52:28;;;;;;;13.03;8.37;;;1.80;99.90;;;;;;4854862;29;20827;-73
2023/12/08 04:54:54;;;;;;;13.80;8.53;;;1.80;99.90;;;;;;4856141;29;20444;-73
2023/12/08 04:57:19;;;;;;;9.03;6.17;;;1.80;99.90;;;;;;4858791;29;20727;-74
2023/12/08 04:59:45;;;;;;;10.33;6.93;;;1.80;99.90;;;;;;4865074;29;20204;-73
2023/12/08 05:02:11;;;;;;;11.43;6.43;;;1.80;99.90;;;;;;4856882;29;20651;-74
2023/12/08 05:04:36;;;;;;;12.40;7.80;;;1.80;99.90;;;;;;4854347;29;20447;-74
2023/12/08 05:07:03;;;;;;;12.47;8.10;;;1.80;99.90;;;;;;4860783;29;20240;-74
2023/12/08 05:09:28;;;;;;;13.10;8.20;;;1.80;99.90;;;;;;4851745;29;20180;-74
2023/12/08 05:11:54;;;;;;;14.83;8.07;;;1.80;99.90;;;;;;4860914;29;20449;-77
2023/12/08 05:14:20;;;;;;;15.43;8.73;;;1.80;99.90;;;;;;4860689;29;20197;-73
2023/12/08 05:16:45;;;;;;;14.13;9.53;;;1.80;99.90;;;;;;4856384;29;20213;-74
2023/12/08 05:19:11;;;;;;;16.93;9.73;;;1.80;99.90;;;;;;4851158;29;20189;-74
2023/12/08 05:21:36;;;;;;;19.43;11.20;;;1.80;99.90;;;;;;4858681;29;20201;-74
2023/12/08 05:24:02;;;;;;;17.13;10.30;;;1.80;99.90;;;;;;4838431;29;20253;-75
2023/12/08 05:26:28;;;;;;;20.93;10.77;;;1.80;99.90;;;;;;4856053;29;20253;-75
2023/12/08 05:28:53;;;;;;;16.30;9.60;;;1.80;99.90;;;;;;4866022;29;20224;-73
2023/12/08 05:31:19;;;;;;;17.33;10.67;;;1.80;99.90;;;;;;4858467;29;20195;-73
2023/12/08 05:33:45;;;;;;;18.00;10.00;;;1.80;99.90;;;;;;4838795;29;20241;-74
2023/12/08 05:36:11;;;;;;;21.37;10.50;;;1.80;99.90;;;;;;4859913;29;20460;-76
2023/12/08 05:38:36;;;;;;;14.27;10.00;;;1.80;99.90;;;;;;4861412;29;20257;-73
2023/12/08 05:41:03;;;;;;;17.53;10.80;;;1.80;99.90;;;;;;4860132;29;20224;-73
2023/12/08 05:43:29;;;;;;;18.87;11.70;;;1.80;99.90;;;;;;4870155;29;20305;-75
2023/12/08 05:45:55;;;;;;;20.37;10.03;;;1.80;99.90;;;;;;4858406;29;20802;-74
2023/12/08 05:48:21;;;;;;;18.17;11.00;;;1.80;99.90;;;;;;4864508;29;20485;-75
2023/12/08 05:50:47;;;;;;;15.70;9.77;;;1.80;99.90;;;;;;4857744;29;20180;-74
2023/12/08 05:53:13;;;;;;;24.43;11.73;;;1.80;99.90;;;;;;4864853;29;20432;-74
2023/12/08 05:55:39;;;;;;;17.27;11.90;;;1.90;99.90;;;;;;4871200;29;20234;-75
2023/12/08 05:58:05;;;;;;;18.30;9.87;;;1.90;99.90;;;;;;4860083;29;20433;-74
2023/12/08 06:00:33;;;;;;;21.70;11.73;;;1.90;99.90;;;;;;4861561;29;20462;-76
2023/12/08 06:02:59;;;;;;;17.87;9.83;;;1.90;99.90;;;;;;4855575;29;20442;-76
2023/12/08 06:05:25;;;;;;;20.27;11.77;;;1.90;99.90;;;;;;4864624;29;20463;-73
2023/12/08 06:07:50;;;;;;;19.30;11.10;;;1.90;99.90;;;;;;4857787;29;20583;-76
2023/12/08 06:10:16;;;;;;;17.60;9.33;;;1.90;99.90;;;;;;4866455;29;20200;-76
2023/12/08 06:12:42;;;;;;;15.57;8.73;;;1.90;99.90;;;;;;4864798;29;20259;-74
2023/12/08 06:15:09;;;;;;;18.67;10.47;;;1.90;99.90;;;;;;4866499;29;20521;-76
2023/12/08 06:17:36;;;;;;;15.90;11.40;;;1.90;99.90;;;;;;4842995;29;20189;-74
2023/12/08 06:20:04;;;;;;;18.13;10.77;;;1.90;99.90;;;;;;4859979;29;20429;-75
2023/12/08 06:22:30;;;;;;;20.50;12.30;;;1.90;99.90;;;;;;4862998;29;20429;-74
2023/12/08 06:24:56;;;;;;;19.90;11.00;;;1.90;99.90;;;;;;4860729;29;20470;-74
2023/12/08 06:27:22;;;;;;;25.30;12.57;;;1.90;99.90;;;;;;4859351;29;20462;-76
2023/12/08 06:29:50;;;;;;;23.67;12.63;;;1.90;99.90;;;;;;4864733;29;20597;-78
2023/12/08 06:32:18;;;;;;;22.97;12.63;;;1.90;99.90;;;;;;4847541;29;20523;-75
2023/12/08 06:34:46;;;;;;;25.83;11.70;;;1.90;99.90;;;;;;4840811;29;20470;-77
2023/12/08 06:37:12;;;;;;;16.20;11.17;;;1.90;99.90;;;;;;4862555;29;20456;-75
2023/12/08 06:39:39;;;;;;;19.67;11.10;;;2.00;99.90;;;;;;4849194;29;20502;-77
2023/12/08 06:42:06;;;;;;;18.70;11.10;;;2.00;99.90;;;;;;4846335;29;20440;-76
2023/12/08 06:44:31;;;;;;;22.17;10.97;;;2.00;99.90;;;;;;4861570;29;20425;-75
2023/12/08 06:46:57;;;;;;;20.73;11.93;;;2.00;99.90;;;;;;4853796;29;20477;-77
2023/12/08 06:49:23;;;;;;;24.40;11.97;;;2.00;99.90;;;;;;4861366;29;20189;-77
2023/12/08 06:51:48;;;;;;;21.00;11.70;;;2.00;99.90;;;;;;4860844;29;20244;-79
2023/12/08 06:54:14;;;;;;;18.23;10.93;;;2.00;99.90;;;;;;4861537;29;20458;-76
2023/12/08 06:56:42;;;;;;;26.73;12.20;;;2.00;99.90;;;;;;4850450;29;20212;-77
2023/12/08 06:59:08;;;;;;;20.87;11.17;;;2.00;99.90;;;;;;4861074;29;20499;-76
2023/12/08 07:01:34;;;;;;;21.87;11.40;;;2.10;99.90;;;;;;4870154;29;20437;-76
2023/12/08 07:04:00;;;;;;;24.10;11.93;;;2.10;99.90;;;;;;4860853;29;20539;-77
2023/12/08 07:06:26;;;;;;;22.17;12.50;;;2.00;99.90;;;;;;4860557;29;20798;-78
2023/12/08 07:08:51;;;;;;;26.47;14.07;;;2.00;99.90;;;;;;4859534;29;20204;-79
2023/12/08 07:11:17;;;;;;;18.73;11.07;;;2.00;99.90;;;;;;4857395;29;20185;-75
2023/12/08 07:13:43;;;;;;;23.20;10.37;;;2.00;99.90;;;;;;4860518;29;20196;-75
2023/12/08 07:16:09;;;;;;;24.00;13.70;;;2.10;99.90;;;;;;4859144;29;20300;-76
2023/12/08 07:18:37;;;;;;;25.70;13.80;;;2.10;99.90;;;;;;4858355;29;20326;-76
2023/12/08 07:21:04;;;;;;;24.93;13.60;;;2.10;99.90;;;;;;4859343;29;20442;-77
2023/12/08 07:23:29;;;;;;;24.10;13.10;;;2.00;99.90;;;;;;4866629;29;20441;-77
2023/12/08 07:25:55;;;;;;;28.83;13.87;;;2.10;99.90;;;;;;4863087;29;20468;-76
2023/12/08 07:28:21;;;;;;;28.20;15.10;;;2.10;99.90;;;;;;4861869;29;20317;-76
2023/12/08 07:30:46;;;;;;;30.33;14.83;;;2.10;99.90;;;;;;4862592;29;20196;-76
2023/12/08 07:33:12;;;;;;;26.37;14.33;;;2.10;99.90;;;;;;4838552;29;20229;-77
2023/12/08 07:35:38;;;;;;;27.40;15.10;;;2.10;99.90;;;;;;4859140;29;20276;-77
2023/12/08 07:38:04;;;;;;;35.10;15.87;;;2.10;99.90;;;;;;4857918;29;20192;-74
2023/12/08 07:40:30;;;;;;;29.53;13.93;;;2.10;99.90;;;;;;4862623;29;20482;-76
2023/12/08 07:42:55;;;;;;;27.30;13.93;;;2.10;99.90;;;;;;4861262;29;20196;-76
2023/12/08 07:45:21;;;;;;;28.23;13.03;;;2.20;99.90;;;;;;4864221;29;20484;-77
2023/12/08 07:47:47;;;;;;;27.17;13.90;;;2.20;99.90;;;;;;4871556;29;20368;-76
2023/12/08 07:50:14;;;;;;;21.27;11.60;;;2.20;99.90;;;;;;4858877;29;20349;-74
2023/12/08 07:52:43;;;;;;;19.50;10.93;;;2.30;99.90;;;;;;4864693;29;20417;-75
2023/12/08 07:55:12;;;;;;;29.93;14.27;;;2.30;99.90;;;;;;4867411;29;20511;-76
2023/12/08 07:57:38;;;;;;;27.50;13.40;;;2.30;99.90;;;;;;4850075;29;20461;-76
2023/12/08 08:00:06;;;;;;;25.57;14.37;;;2.30;99.90;;;;;;4846661;29;20877;-75
2023/12/08 08:02:32;;;;;;;34.57;15.03;;;2.30;99.90;;;;;;4858276;29;20194;-75
2023/12/08 08:04:58;;;;;;;35.73;15.47;;;2.30;99.90;;;;;;4855036;29;20555;-75
2023/12/08 08:07:24;;;;;;;29.63;15.30;;;2.40;99.90;;;;;;4856200;29;20454;-75
2023/12/08 08:09:51;;;;;;;30.70;14.97;;;2.40;99.90;;;;;;4843646;29;20489;-76
2023/12/08 08:12:17;;;;;;;22.33;14.03;;;2.40;99.90;;;;;;4851226;29;20204;-76
2023/12/08 08:14:42;;;;;;;25.80;12.33;;;2.40;99.90;;;;;;4860402;29;20434;-75
2023/12/08 08:17:08;;;;;;;28.53;13.70;;;2.40;99.90;;;;;;4856318;29;20475;-75
2023/12/08 08:19:34;;;;;;;26.40;12.87;;;2.50;99.90;;;;;;4862344;29;20189;-77
2023/12/08 08:21:59;;;;;;;20.73;12.50;;;2.50;99.90;;;;;;4872507;29;20193;-74
2023/12/08 08:24:26;;;;;;;23.57;12.07;;;2.50;99.90;;;;;;4865570;29;20326;-78
2023/12/08 08:26:52;;;;;;;26.53;15.43;;;2.50;99.90;;;;;;4867377;29;20216;-75
2023/12/08 08:29:18;;;;;;;31.53;14.63;;;2.60;99.90;;;;;;4866046;29;20410;-77
2023/12/08 08:31:44;;;;;;;23.80;13.27;;;2.60;99.90;;;;;;4833840;29;20204;-77
2023/12/08 08:34:10;;;;;;;29.47;14.97;;;2.60;99.90;;;;;;4861075;29;20488;-77
2023/12/08 08:36:36;;;;;;;29.30;15.43;;;2.60;99.90;;;;;;4872564;29;20425;-78
2023/12/08 08:39:03;;;;;;;25.03;14.17;;;2.60;99.90;;;;;;4846490;29;20193;-78
2023/12/08 08:41:31;;;;;;;28.50;12.97;;;2.70;99.90;;;;;;4871581;29;20425;-80
2023/12/08 08:43:59;;;;;;;21.53;11.93;;;2.70;99.90;;;;;;4835409;29;20431;-76
2023/12/08 08:46:26;;;;;;;27.30;12.87;;;2.70;99.90;;;;;;4821373;29;20465;-78
2023/12/08 08:49:04;;;;;;;29.07;13.20;;;2.70;99.90;;;;;;4859768;29;20495;-76
2023/12/08 08:51:30;;;;;;;33.17;15.60;;;2.80;99.90;;;;;;4871087;29;20418;-78
2023/12/08 08:53:56;;;;;;;25.00;12.70;;;2.80;99.90;;;;;;4850713;29;20440;-78
2023/12/08 08:56:25;;;;;;;28.10;14.43;;;2.80;99.90;;;;;;4868446;29;20239;-79
2023/12/08 08:58:53;;;;;;;31.00;15.23;;;2.80;99.90;;;;;;4861194;29;20446;-79
2023/12/08 09:01:20;;;;;;;27.00;14.73;;;2.80;99.90;;;;;;4837824;29;20425;-79
2023/12/08 09:03:50;;;;;;;33.77;15.90;;;2.80;99.90;;;;;;4848831;29;20438;-78
2023/12/08 09:06:18;;;;;;;26.93;15.77;;;2.80;99.90;;;;;;4882111;29;20441;-78
2023/12/08 09:08:44;;;;;;;35.53;18.60;;;2.90;99.90;;;;;;4840833;29;21000;-77
2023/12/08 09:11:13;;;;;;;36.17;18.17;;;2.90;99.90;;;;;;4854683;29;20517;-78
2023/12/08 09:13:40;;;;;;;30.80;17.40;;;2.80;99.90;;;;;;4877311;29;20418;-78
2023/12/08 09:16:07;;;;;;;33.40;17.10;;;2.90;99.90;;;;;;4844134;29;20457;-78
2023/12/08 09:18:32;;;;;;;33.57;16.60;;;2.90;99.90;;;;;;4833202;29;20434;-77
2023/12/08 09:20:58;;;;;;;33.13;15.90;;;3.00;99.90;;;;;;4866139;29;20449;-76
2023/12/08 09:23:24;;;;;;;29.93;16.87;;;3.00;99.90;;;;;;4866552;29;20203;-79
2023/12/08 09:25:50;;;;;;;34.30;17.20;;;3.00;99.90;;;;;;4883565;29;20211;-79
2023/12/08 09:28:18;;;;;;;30.60;15.00;;;3.00;99.90;;;;;;4855384;29;20292;-77
2023/12/08 09:30:47;;;;;;;33.17;16.90;;;3.00;99.90;;;;;;4851292;29;20445;-76
2023/12/08 09:33:14;;;;;;;35.73;19.90;;;3.10;99.90;;;;;;4874289;29;20477;-78
2023/12/08 09:35:40;;;;;;;36.37;18.80;;;3.10;99.90;;;;;;4852616;29;20467;-78
2023/12/08 09:38:07;;;;;;;41.00;21.50;;;3.00;99.90;;;;;;4857665;29;20426;-77
2023/12/08 09:40:34;;;;;;;47.37;22.27;;;3.10;99.90;;;;;;4869528;29;20510;-77
2023/12/08 09:43:17;;;;;;;42.00;19.70;;;3.10;99.90;;;;;;4881749;29;20418;-75
2023/12/08 09:45:45;;;;;;;37.30;20.13;;;3.10;99.90;;;;;;4855942;29;20447;-79
2023/12/08 09:48:12;;;;;;;40.77;19.30;;;3.20;99.90;;;;;;4852112;29;20473;-75
2023/12/08 09:50:39;;;;;;;34.23;18.90;;;3.20;99.90;;;;;;4867343;29;20449;-77
2023/12/08 09:53:06;;;;;;;36.77;19.37;;;3.20;99.90;;;;;;4855976;29;20429;-74
2023/12/08 09:55:33;;;;;;;33.03;19.10;;;3.30;99.90;;;;;;4870158;29;20478;-76
2023/12/08 09:58:00;;;;;;;43.10;20.97;;;3.30;99.90;;;;;;4878278;29;20413;-76
2023/12/08 10:00:30;;;;;;;39.67;18.40;;;3.30;99.90;;;;;;4871875;29;20402;-78
2023/12/08 10:03:00;;;;;;;36.10;18.80;;;3.40;99.90;;;;;;4865700;29;20473;-78
2023/12/08 10:05:27;;;;;;;36.67;18.60;;;3.40;99.90;;;;;;4854698;29;20459;-78
2023/12/08 10:07:58;;;;;;;36.27;18.17;;;3.40;99.90;;;;;;4861919;29;20457;-79
2023/12/08 10:10:24;;;;;;;39.33;18.90;;;3.40;99.90;;;;;;4846858;29;20425;-78
2023/12/08 10:13:05;;;;;;;32.57;19.37;;;3.40;99.90;;;;;;4875914;29;20792;-78
2023/12/08 10:15:34;;;;;;;49.37;22.43;;;3.50;99.90;;;;;;4855919;29;20483;-77
2023/12/08 10:18:02;;;;;;;40.20;19.27;;;3.50;99.90;;;;;;4853976;29;20462;-78
2023/12/08 10:20:28;;;;;;;41.70;18.73;;;3.50;99.90;;;;;;4848548;29;20723;-78
2023/12/08 10:23:00;;;;;;;42.67;19.93;;;3.50;99.90;;;;;;4856089;29;20428;-79
2023/12/08 10:25:39;;;;;;;42.73;23.10;;;3.60;99.90;;;;;;4891961;29;20446;-79
2023/12/08 10:28:23;;;;;;;32.90;18.70;;;3.70;99.90;;;;;;4881448;29;20505;-81
2023/12/08 10:30:52;;;;;;;38.00;21.00;;;3.70;99.90;;;;;;4876172;29;20408;-79
2023/12/08 10:33:25;;;;;;;35.33;20.37;;;3.80;99.90;;;;;;4877269;29;20468;-80
2023/12/08 10:35:54;;;;;;;32.20;18.20;;;3.80;99.90;;;;;;4883261;29;20431;-79
2023/12/08 10:38:23;;;;;;;45.13;22.20;;;3.80;99.90;;;;;;4885401;29;20491;-79
2023/12/08 10:40:59;;;;;;;35.43;20.67;;;3.80;99.90;;;;;;4893436;29;20408;-79
2023/12/08 10:43:25;;;;;;;33.03;18.10;;;3.90;99.90;;;;;;4895492;29;20424;-78
2023/12/08 10:45:55;;;;;;;35.10;20.17;;;3.90;99.90;;;;;;4883770;29;20519;-79
2023/12/08 10:48:25;;;;;;;40.03;20.90;;;3.90;99.90;;;;;;4903302;29;20538;-79
2023/12/08 10:50:52;;;;;;;38.07;19.60;;;3.90;99.90;;;;;;4904058;29;20962;-78
2023/12/08 10:53:20;;;;;;;29.10;17.47;;;3.90;99.90;;;;;;4912986;29;20419;-77
2023/12/08 10:56:03;;;;;;;33.53;19.70;;;3.90;99.90;;;;;;4905185;29;20440;-79
2023/12/08 10:58:32;;;;;;;31.10;17.10;;;3.90;99.90;;;;;;4866890;29;20461;-79
2023/12/08 11:01:06;;;;;;;31.73;18.63;;;3.80;99.90;;;;;;4873239;29;20420;-80
2023/12/08 11:03:37;;;;;;;31.47;18.97;;;3.90;99.90;;;;;;4879263;29;20440;-78
2023/12/08 11:06:21;;;;;;;30.60;18.70;;;3.90;99.90;;;;;;4869085;29;20497;-79
2023/12/08 11:09:26;;;;;;;;;;;;;;;;;;;;;
2023/12/08 12:30:59;;;;;;;26.10;17.03;;;4.90;99.90;;;;;;5903810;24;20465;-85
2023/12/08 12:33:25;;;;;;;25.37;17.93;;;4.90;99.90;;;;;;4841049;29;20474;-75
2023/12/08 12:35:53;;;;;;;29.37;17.07;;;4.90;99.90;;;;;;4820732;29;20446;-74
2023/12/08 12:38:19;;;;;;;25.33;15.00;;;4.90;99.90;;;;;;4807893;29;20190;-74
2023/12/08 12:40:53;;;;;;;26.77;17.40;;;4.80;99.90;;;;;;4831568;29;20446;-75
2023/12/08 12:43:19;;;;;;;33.53;17.00;;;4.90;99.90;;;;;;4826778;29;20440;-75
2023/12/08 12:45:45;;;;;;;29.20;19.27;;;4.90;99.90;;;;;;4826908;29;20458;-77
2023/12/08 12:48:11;;;;;;;24.53;15.53;;;4.90;99.90;;;;;;4826335;29;20217;-74
2023/12/08 12:50:47;;;;;;;27.27;15.80;;;4.90;99.90;;;;;;4816973;29;20447;-74
2023/12/08 12:53:14;;;;;;;27.77;17.50;;;4.90;99.90;;;;;;4831995;29;20420;-76
2023/12/08 12:55:40;;;;;;;27.00;17.23;;;4.90;99.90;;;;;;4830145;29;20658;-76
2023/12/08 12:58:05;;;;;;;24.77;16.30;;;5.00;99.90;;;;;;4811027;29;20881;-73
2023/12/08 13:00:37;;;;;;;27.90;17.40;;;4.90;99.90;;;;;;4830217;29;20280;-75
2023/12/08 13:03:11;;;;;;;28.13;15.10;;;5.00;99.90;;;;;;4824911;29;20488;-76
2023/12/08 13:05:45;;;;;;;27.50;15.90;;;5.00;99.90;;;;;;4832173;29;20463;-76
2023/12/08 13:08:11;;;;;;;18.93;12.80;;;5.00;99.90;;;;;;4829073;29;20456;-76
2023/12/08 13:10:36;;;;;;;19.43;12.00;;;5.00;99.90;;;;;;4810934;29;20437;-75
2023/12/08 13:13:02;;;;;;;16.73;11.77;;;5.10;99.90;;;;;;4828128;29;20239;-75
2023/12/08 13:15:28;;;;;;;19.20;12.80;;;5.10;99.90;;;;;;4822552;29;20239;-77
2023/12/08 13:17:54;;;;;;;22.07;13.83;;;5.20;99.90;;;;;;4810985;29;20226;-76
2023/12/08 13:20:22;;;;;;;18.60;11.87;;;5.20;99.90;;;;;;4828422;29;20420;-76
2023/12/08 13:22:48;;;;;;;18.43;12.73;;;5.20;99.90;;;;;;4813701;29;20492;-65
2023/12/08 13:25:14;;;;;;;32.07;19.37;;;5.30;99.90;;;;;;4813929;29;20474;-64
2023/12/08 13:27:39;;;;;;;23.90;15.00;;;5.20;99.90;;;;;;4818715;29;20700;-63
2023/12/08 13:30:07;;;;;;;22.90;13.97;;;5.20;99.90;;;;;;4814016;29;20191;-65
2023/12/08 13:32:34;;;;;;;27.40;17.45;;;5.20;99.90;;;;;;4821477;29;20805;-78
2023/12/08 13:35:00;;;;;;;21.87;14.97;;;5.30;99.90;;;;;;4809300;29;20215;-78
2023/12/08 13:37:29;;;;;;;22.80;13.90;;;5.30;99.90;;;;;;4807430;29;20447;-76
2023/12/08 13:39:54;;;;;;;20.80;13.00;;;5.30;99.90;;;;;;4813386;29;20424;-75
2023/12/08 13:42:20;;;;;;;24.97;16.37;;;5.40;99.90;;;;;;4840829;29;20616;-75
2023/12/08 13:44:46;;;;;;;23.70;15.27;;;5.50;99.90;;;;;;4811302;29;20226;-76
2023/12/08 13:47:12;;;;;;;29.80;16.00;;;5.50;99.90;;;;;;4827885;29;20244;-77
2023/12/08 13:49:37;;;;;;;25.07;15.07;;;5.60;99.90;;;;;;4812460;29;20482;-74
2023/12/08 13:52:03;;;;;;;28.30;15.53;;;5.60;99.90;;;;;;4834368;29;20419;-77
2023/12/08 13:54:30;;;;;;;25.40;15.63;;;5.60;99.90;;;;;;4834331;29;20198;-77
2023/12/08 13:56:56;;;;;;;23.13;13.40;;;5.70;99.90;;;;;;4827343;29;20427;-75